Accueil
METAR-TAF:

METAR-TAF

Aéroports :

Tanna, Vanuatu

latitude: 19-27-18S, longitude: 169-13-26E, altitude: 6 m

Observation

Le bulletin a été fait il y a 1 heure et 1 minutes, à 06:00 UTC
Vent 6 kt de sud/sud-est
Température 24°C
Humidité 65%
Pression 1016 hPa
Visibilité 10 km ou plus
Quelques nuages à une hauteur de 2000 ft

METAR: NVVW 270600Z 16006KT 9999 FEW020 24/17 Q1016 RMK NIL

Heure: 18:01 (07:01 UTC)

Prévision

Le bulletin a été fait il y a 2 heures et 31 minutes, à 04:30 UTC
Prévision valable du 27 à 06 UTC au 28 à 06 UTC
Vent 10 kt de sud-est
Visibilité 10 km ou plus
Nuages épars à une hauteur de 2000 ft
Evoluant progressivement
du 27 à 07 UTC au 27 à 09 UTC
Vent 5 kt de sud-est

TAF: NVVW 270430Z 2706/2806 13010KT 9999 SCT020 BECMG 2707/2709 13005KT

Observations et prévisions météorologiques de plus de 4000 aéroports (messages METAR et TAF).

Les stations disponibles sont représentées par des disques jaunes et rouges sur la carte.

Passer la souris dessus pour voir le nom de la station.

Cliquer dessus pour voir les observations et prévisions météorologiques.

Pour changer de carte: cliquez sur les boutons verts avec une croix noire pour zoomer, sur le bouton vert avec un tiret pour effectuer un zoom arrière, ou sur les flèches vertes pour les cartes adjacentes.


METAR-TAF: